sensor_id;sensor_type;location;lat;lon;timestamp;P1;durP1;ratioP1;P2;durP2;ratioP2
77522;SDS011;66637;-29.628;-49.938;2023-03-01T00:02:38;37.58;;;5.95;;
77522;SDS011;66637;-29.628;-49.938;2023-03-01T00:05:49;41.40;;;5.75;;
77522;SDS011;66637;-29.628;-49.938;2023-03-01T00:08:25;54.65;;;7.30;;
77522;SDS011;66637;-29.628;-49.938;2023-03-01T00:11:14;31.25;;;5.03;;
77522;SDS011;66637;-29.628;-49.938;2023-03-01T00:13:59;33.58;;;5.22;;
77522;SDS011;66637;-29.628;-49.938;2023-03-01T00:16:44;32.22;;;6.03;;
77522;SDS011;66637;-29.628;-49.938;2023-03-01T00:19:38;47.08;;;6.50;;
77522;SDS011;66637;-29.628;-49.938;2023-03-01T00:22:32;47.60;;;6.65;;
77522;SDS011;66637;-29.628;-49.938;2023-03-01T00:25:07;41.53;;;7.25;;
77522;SDS011;66637;-29.628;-49.938;2023-03-01T00:27:55;51.58;;;7.10;;
77522;SDS011;66637;-29.628;-49.938;2023-03-01T00:30:43;46.20;;;7.15;;
77522;SDS011;66637;-29.628;-49.938;2023-03-01T00:33:44;31.90;;;6.05;;
77522;SDS011;66637;-29.628;-49.938;2023-03-01T00:36:17;41.20;;;6.13;;
77522;SDS011;66637;-29.628;-49.938;2023-03-01T00:38:53;45.17;;;5.80;;
77522;SDS011;66637;-29.628;-49.938;2023-03-01T00:41:31;43.78;;;6.82;;
77522;SDS011;66637;-29.628;-49.938;2023-03-01T00:44:16;53.55;;;7.78;;
77522;SDS011;66637;-29.628;-49.938;2023-03-01T00:47:07;32.35;;;5.78;;
77522;SDS011;66637;-29.628;-49.938;2023-03-01T00:50:04;36.20;;;5.70;;
77522;SDS011;66637;-29.628;-49.938;2023-03-01T00:53:11;37.70;;;5.53;;
77522;SDS011;66637;-29.628;-49.938;2023-03-01T00:56:16;38.65;;;6.57;;
77522;SDS011;66637;-29.628;-49.938;2023-03-01T00:59:09;48.05;;;7.47;;
77522;SDS011;66637;-29.628;-49.938;2023-03-01T01:01:47;45.50;;;6.38;;
77522;SDS011;66637;-29.628;-49.938;2023-03-01T01:04:40;47.35;;;7.78;;
77522;SDS011;66637;-29.628;-49.938;2023-03-01T01:07:42;45.15;;;6.13;;
77522;SDS011;66637;-29.628;-49.938;2023-03-01T01:10:34;33.00;;;5.35;;
77522;SDS011;66637;-29.628;-49.938;2023-03-01T01:13:12;44.72;;;6.10;;
77522;SDS011;66637;-29.628;-49.938;2023-03-01T01:16:24;36.88;;;6.57;;
77522;SDS011;66637;-29.628;-49.938;2023-03-01T01:19:01;38.13;;;6.35;;
77522;SDS011;66637;-29.628;-49.938;2023-03-01T01:21:43;38.83;;;6.28;;
77522;SDS011;66637;-29.628;-49.938;2023-03-01T01:24:40;47.88;;;7.05;;
77522;SDS011;66637;-29.628;-49.938;2023-03-01T01:27:56;31.17;;;6.15;;
77522;SDS011;66637;-29.628;-49.938;2023-03-01T01:30:38;36.42;;;6.10;;
77522;SDS011;66637;-29.628;-49.938;2023-03-01T01:33:31;41.60;;;5.60;;
77522;SDS011;66637;-29.628;-49.938;2023-03-01T01:36:28;46.15;;;6.35;;
77522;SDS011;66637;-29.628;-49.938;2023-03-01T01:39:02;36.65;;;6.45;;
77522;SDS011;66637;-29.628;-49.938;2023-03-01T01:41:44;48.65;;;6.57;;
77522;SDS011;66637;-29.628;-49.938;2023-03-01T01:44:29;52.67;;;7.28;;
77522;SDS011;66637;-29.628;-49.938;2023-03-01T01:50:39;49.03;;;7.40;;
77522;SDS011;66637;-29.628;-49.938;2023-03-01T01:54:03;49.47;;;6.93;;
77522;SDS011;66637;-29.628;-49.938;2023-03-01T01:56:59;49.95;;;7.38;;
77522;SDS011;66637;-29.628;-49.938;2023-03-01T01:59:57;48.88;;;6.97;;
77522;SDS011;66637;-29.628;-49.938;2023-03-01T02:02:50;41.03;;;6.13;;
77522;SDS011;66637;-29.628;-49.938;2023-03-01T02:08:30;21.90;;;3.72;;
77522;SDS011;66637;-29.628;-49.938;2023-03-01T02:11:25;18.05;;;3.20;;
77522;SDS011;66637;-29.628;-49.938;2023-03-01T02:14:27;13.60;;;3.00;;
77522;SDS011;66637;-29.628;-49.938;2023-03-01T02:17:27;13.48;;;3.33;;
77522;SDS011;66637;-29.628;-49.938;2023-03-01T02:23:01;11.48;;;2.70;;
77522;SDS011;66637;-29.628;-49.938;2023-03-01T02:28:40;14.68;;;3.50;;
77522;SDS011;66637;-29.628;-49.938;2023-03-01T02:31:37;17.90;;;3.75;;
77522;SDS011;66637;-29.628;-49.938;2023-03-01T02:34:31;17.25;;;3.63;;
77522;SDS011;66637;-29.628;-49.938;2023-03-01T02:37:15;14.63;;;3.22;;
77522;SDS011;66637;-29.628;-49.938;2023-03-01T02:40:28;12.38;;;3.00;;
77522;SDS011;66637;-29.628;-49.938;2023-03-01T02:43:02;21.48;;;3.60;;
77522;SDS011;66637;-29.628;-49.938;2023-03-01T02:46:05;18.83;;;3.55;;
77522;SDS011;66637;-29.628;-49.938;2023-03-01T02:55:02;14.13;;;3.30;;
77522;SDS011;66637;-29.628;-49.938;2023-03-01T02:57:55;20.73;;;3.28;;
77522;SDS011;66637;-29.628;-49.938;2023-03-01T03:00:41;18.42;;;3.42;;
77522;SDS011;66637;-29.628;-49.938;2023-03-01T03:03:33;15.50;;;3.45;;
77522;SDS011;66637;-29.628;-49.938;2023-03-01T03:06:49;16.35;;;4.03;;
77522;SDS011;66637;-29.628;-49.938;2023-03-01T03:09:26;18.40;;;3.22;;
77522;SDS011;66637;-29.628;-49.938;2023-03-01T03:12:11;12.52;;;3.17;;
77522;SDS011;66637;-29.628;-49.938;2023-03-01T03:15:13;13.77;;;3.13;;
77522;SDS011;66637;-29.628;-49.938;2023-03-01T03:18:01;10.55;;;3.28;;
77522;SDS011;66637;-29.628;-49.938;2023-03-01T03:20:40;12.10;;;3.63;;
77522;SDS011;66637;-29.628;-49.938;2023-03-01T03:23:29;13.13;;;2.92;;
77522;SDS011;66637;-29.628;-49.938;2023-03-01T03:26:17;17.10;;;3.25;;
77522;SDS011;66637;-29.628;-49.938;2023-03-01T03:29:05;10.23;;;2.60;;
77522;SDS011;66637;-29.628;-49.938;2023-03-01T03:32:11;10.48;;;2.95;;
77522;SDS011;66637;-29.628;-49.938;2023-03-01T03:35:06;12.75;;;2.90;;
77522;SDS011;66637;-29.628;-49.938;2023-03-01T03:38:09;16.83;;;3.45;;
77522;SDS011;66637;-29.628;-49.938;2023-03-01T03:41:05;10.25;;;2.63;;
77522;SDS011;66637;-29.628;-49.938;2023-03-01T03:43:48;10.38;;;2.95;;
77522;SDS011;66637;-29.628;-49.938;2023-03-01T03:46:32;14.02;;;3.42;;
77522;SDS011;66637;-29.628;-49.938;2023-03-01T03:49:34;13.88;;;3.17;;
77522;SDS011;66637;-29.628;-49.938;2023-03-01T03:52:19;13.63;;;2.83;;
77522;SDS011;66637;-29.628;-49.938;2023-03-01T03:55:03;12.15;;;2.88;;
77522;SDS011;66637;-29.628;-49.938;2023-03-01T03:58:14;12.10;;;3.20;;
77522;SDS011;66637;-29.628;-49.938;2023-03-01T04:00:55;11.20;;;3.00;;
77522;SDS011;66637;-29.628;-49.938;2023-03-01T04:03:42;8.88;;;2.85;;
77522;SDS011;66637;-29.628;-49.938;2023-03-01T04:08:59;11.90;;;3.00;;
77522;SDS011;66637;-29.628;-49.938;2023-03-01T04:11:40;8.48;;;2.40;;
77522;SDS011;66637;-29.628;-49.938;2023-03-01T04:14:11;8.68;;;2.78;;
77522;SDS011;66637;-29.628;-49.938;2023-03-01T04:16:48;10.65;;;3.05;;
77522;SDS011;66637;-29.628;-49.938;2023-03-01T04:19:50;12.00;;;3.42;;
77522;SDS011;66637;-29.628;-49.938;2023-03-01T04:22:29;9.38;;;2.85;;
77522;SDS011;66637;-29.628;-49.938;2023-03-01T04:25:06;12.27;;;3.30;;
77522;SDS011;66637;-29.628;-49.938;2023-03-01T04:28:03;8.70;;;3.03;;
77522;SDS011;66637;-29.628;-49.938;2023-03-01T04:30:44;9.57;;;2.67;;
77522;SDS011;66637;-29.628;-49.938;2023-03-01T04:33:20;9.48;;;2.83;;
77522;SDS011;66637;-29.628;-49.938;2023-03-01T04:36:32;9.45;;;3.72;;
77522;SDS011;66637;-29.628;-49.938;2023-03-01T04:39:19;13.07;;;3.08;;
77522;SDS011;66637;-29.628;-49.938;2023-03-01T04:41:57;10.27;;;2.95;;
77522;SDS011;66637;-29.628;-49.938;2023-03-01T04:44:38;9.77;;;3.53;;
77522;SDS011;66637;-29.628;-49.938;2023-03-01T04:47:12;12.57;;;3.10;;
77522;SDS011;66637;-29.628;-49.938;2023-03-01T04:49:52;10.98;;;3.95;;
77522;SDS011;66637;-29.628;-49.938;2023-03-01T04:52:23;8.40;;;3.33;;
77522;SDS011;66637;-29.628;-49.938;2023-03-01T04:55:02;10.90;;;3.45;;
77522;SDS011;66637;-29.628;-49.938;2023-03-01T04:57:38;9.50;;;3.28;;
77522;SDS011;66637;-29.628;-49.938;2023-03-01T05:00:26;12.10;;;3.20;;
77522;SDS011;66637;-29.628;-49.938;2023-03-01T05:03:01;9.65;;;3.22;;
77522;SDS011;66637;-29.628;-49.938;2023-03-01T05:05:52;12.45;;;3.50;;
77522;SDS011;66637;-29.628;-49.938;2023-03-01T05:08:32;9.88;;;3.22;;
77522;SDS011;66637;-29.628;-49.938;2023-03-01T05:11:41;14.13;;;3.67;;
77522;SDS011;66637;-29.628;-49.938;2023-03-01T05:14:13;12.60;;;3.92;;
77522;SDS011;66637;-29.628;-49.938;2023-03-01T05:16:57;12.65;;;4.05;;
77522;SDS011;66637;-29.628;-49.938;2023-03-01T05:19:35;14.43;;;3.90;;
77522;SDS011;66637;-29.628;-49.938;2023-03-01T05:22:09;12.88;;;4.07;;
77522;SDS011;66637;-29.628;-49.938;2023-03-01T05:24:46;9.77;;;3.75;;
77522;SDS011;66637;-29.628;-49.938;2023-03-01T05:27:50;11.30;;;4.00;;
77522;SDS011;66637;-29.628;-49.938;2023-03-01T05:30:47;8.80;;;3.67;;
77522;SDS011;66637;-29.628;-49.938;2023-03-01T05:33:27;11.13;;;4.10;;
77522;SDS011;66637;-29.628;-49.938;2023-03-01T05:36:09;12.02;;;3.97;;
77522;SDS011;66637;-29.628;-49.938;2023-03-01T05:38:47;12.35;;;3.85;;
77522;SDS011;66637;-29.628;-49.938;2023-03-01T05:41:22;14.10;;;4.10;;
77522;SDS011;66637;-29.628;-49.938;2023-03-01T05:44:10;22.52;;;4.57;;
77522;SDS011;66637;-29.628;-49.938;2023-03-01T05:47:15;15.35;;;4.22;;
77522;SDS011;66637;-29.628;-49.938;2023-03-01T05:49:51;19.42;;;4.20;;
77522;SDS011;66637;-29.628;-49.938;2023-03-01T05:52:26;16.50;;;4.07;;
77522;SDS011;66637;-29.628;-49.938;2023-03-01T05:55:16;10.15;;;3.80;;
77522;SDS011;66637;-29.628;-49.938;2023-03-01T05:58:09;10.50;;;3.72;;
77522;SDS011;66637;-29.628;-49.938;2023-03-01T06:03:38;11.13;;;4.32;;
77522;SDS011;66637;-29.628;-49.938;2023-03-01T06:06:34;12.30;;;3.80;;
77522;SDS011;66637;-29.628;-49.938;2023-03-01T06:09:34;10.70;;;3.47;;
77522;SDS011;66637;-29.628;-49.938;2023-03-01T06:12:05;10.00;;;3.47;;
77522;SDS011;66637;-29.628;-49.938;2023-03-01T06:14:36;13.45;;;3.60;;
77522;SDS011;66637;-29.628;-49.938;2023-03-01T06:17:22;9.15;;;4.10;;
77522;SDS011;66637;-29.628;-49.938;2023-03-01T06:20:21;13.05;;;4.30;;
77522;SDS011;66637;-29.628;-49.938;2023-03-01T06:23:05;10.02;;;3.63;;
77522;SDS011;66637;-29.628;-49.938;2023-03-01T06:25:38;12.07;;;3.55;;
77522;SDS011;66637;-29.628;-49.938;2023-03-01T06:28:18;8.30;;;3.72;;
77522;SDS011;66637;-29.628;-49.938;2023-03-01T06:31:14;7.22;;;3.35;;
77522;SDS011;66637;-29.628;-49.938;2023-03-01T06:33:47;9.50;;;3.40;;
77522;SDS011;66637;-29.628;-49.938;2023-03-01T06:36:17;13.75;;;4.13;;
77522;SDS011;66637;-29.628;-49.938;2023-03-01T06:38:59;17.25;;;4.38;;
77522;SDS011;66637;-29.628;-49.938;2023-03-01T06:41:47;17.70;;;4.75;;
77522;SDS011;66637;-29.628;-49.938;2023-03-01T06:44:43;29.05;;;5.20;;
77522;SDS011;66637;-29.628;-49.938;2023-03-01T06:47:37;40.25;;;6.53;;
77522;SDS011;66637;-29.628;-49.938;2023-03-01T06:50:25;44.90;;;6.75;;
77522;SDS011;66637;-29.628;-49.938;2023-03-01T06:53:11;52.95;;;7.30;;
77522;SDS011;66637;-29.628;-49.938;2023-03-01T06:58:33;48.40;;;7.03;;
77522;SDS011;66637;-29.628;-49.938;2023-03-01T07:01:22;47.17;;;7.57;;
77522;SDS011;66637;-29.628;-49.938;2023-03-01T07:04:08;39.13;;;7.50;;
77522;SDS011;66637;-29.628;-49.938;2023-03-01T07:07:17;47.55;;;6.93;;
77522;SDS011;66637;-29.628;-49.938;2023-03-01T07:09:55;43.80;;;7.82;;
77522;SDS011;66637;-29.628;-49.938;2023-03-01T07:12:32;56.50;;;7.30;;
77522;SDS011;66637;-29.628;-49.938;2023-03-01T07:15:14;54.72;;;8.07;;
77522;SDS011;66637;-29.628;-49.938;2023-03-01T07:18:10;45.10;;;7.68;;
77522;SDS011;66637;-29.628;-49.938;2023-03-01T07:20:44;51.17;;;7.57;;
77522;SDS011;66637;-29.628;-49.938;2023-03-01T07:23:33;58.25;;;8.20;;
77522;SDS011;66637;-29.628;-49.938;2023-03-01T07:26:30;52.08;;;8.18;;
77522;SDS011;66637;-29.628;-49.938;2023-03-01T07:32:20;51.97;;;8.27;;
77522;SDS011;66637;-29.628;-49.938;2023-03-01T07:37:55;37.55;;;6.22;;
77522;SDS011;66637;-29.628;-49.938;2023-03-01T07:43:57;51.75;;;7.35;;
77522;SDS011;66637;-29.628;-49.938;2023-03-01T07:46:28;55.13;;;8.18;;
77522;SDS011;66637;-29.628;-49.938;2023-03-01T07:49:09;62.47;;;7.88;;
77522;SDS011;66637;-29.628;-49.938;2023-03-01T07:51:41;58.30;;;8.32;;
77522;SDS011;66637;-29.628;-49.938;2023-03-01T07:54:20;35.67;;;6.90;;
77522;SDS011;66637;-29.628;-49.938;2023-03-01T07:57:04;46.33;;;7.38;;
77522;SDS011;66637;-29.628;-49.938;2023-03-01T07:59:48;39.33;;;6.78;;
77522;SDS011;66637;-29.628;-49.938;2023-03-01T08:02:47;47.88;;;7.57;;
77522;SDS011;66637;-29.628;-49.938;2023-03-01T08:05:27;51.67;;;7.80;;
77522;SDS011;66637;-29.628;-49.938;2023-03-01T08:08:10;54.03;;;7.63;;
77522;SDS011;66637;-29.628;-49.938;2023-03-01T08:10:45;41.55;;;6.63;;
77522;SDS011;66637;-29.628;-49.938;2023-03-01T08:13:21;46.03;;;7.60;;
77522;SDS011;66637;-29.628;-49.938;2023-03-01T08:16:05;41.13;;;7.35;;
77522;SDS011;66637;-29.628;-49.938;2023-03-01T08:19:02;45.45;;;7.65;;
77522;SDS011;66637;-29.628;-49.938;2023-03-01T08:21:45;51.00;;;8.15;;
77522;SDS011;66637;-29.628;-49.938;2023-03-01T08:24:17;54.78;;;8.32;;
77522;SDS011;66637;-29.628;-49.938;2023-03-01T08:26:57;54.40;;;8.82;;
77522;SDS011;66637;-29.628;-49.938;2023-03-01T08:29:39;55.45;;;8.80;;
77522;SDS011;66637;-29.628;-49.938;2023-03-01T08:32:11;54.45;;;8.50;;
77522;SDS011;66637;-29.628;-49.938;2023-03-01T08:34:45;45.35;;;7.78;;
77522;SDS011;66637;-29.628;-49.938;2023-03-01T08:37:28;69.38;;;9.27;;
77522;SDS011;66637;-29.628;-49.938;2023-03-01T08:40:07;68.55;;;9.50;;
77522;SDS011;66637;-29.628;-49.938;2023-03-01T08:42:43;86.47;;;10.10;;
77522;SDS011;66637;-29.628;-49.938;2023-03-01T08:45:17;73.28;;;9.63;;
77522;SDS011;66637;-29.628;-49.938;2023-03-01T08:47:54;75.55;;;10.43;;
77522;SDS011;66637;-29.628;-49.938;2023-03-01T08:50:32;70.07;;;10.23;;
77522;SDS011;66637;-29.628;-49.938;2023-03-01T08:53:17;74.28;;;9.57;;
77522;SDS011;66637;-29.628;-49.938;2023-03-01T08:55:52;60.97;;;8.57;;
77522;SDS011;66637;-29.628;-49.938;2023-03-01T08:58:33;49.05;;;7.35;;
77522;SDS011;66637;-29.628;-49.938;2023-03-01T09:01:17;53.25;;;7.95;;
77522;SDS011;66637;-29.628;-49.938;2023-03-01T09:03:57;39.20;;;5.93;;
77522;SDS011;66637;-29.628;-49.938;2023-03-01T09:06:35;41.78;;;6.88;;
77522;SDS011;66637;-29.628;-49.938;2023-03-01T09:09:15;38.42;;;5.50;;
77522;SDS011;66637;-29.628;-49.938;2023-03-01T09:11:52;28.73;;;5.63;;
77522;SDS011;66637;-29.628;-49.938;2023-03-01T09:14:47;29.48;;;5.03;;
77522;SDS011;66637;-29.628;-49.938;2023-03-01T09:17:33;22.88;;;3.92;;
77522;SDS011;66637;-29.628;-49.938;2023-03-01T09:20:26;14.95;;;4.18;;
77522;SDS011;66637;-29.628;-49.938;2023-03-01T09:23:29;9.13;;;3.30;;
77522;SDS011;66637;-29.628;-49.938;2023-03-01T09:26:03;12.18;;;3.10;;
77522;SDS011;66637;-29.628;-49.938;2023-03-01T09:28:45;11.38;;;3.45;;
77522;SDS011;66637;-29.628;-49.938;2023-03-01T09:31:23;10.25;;;3.13;;
77522;SDS011;66637;-29.628;-49.938;2023-03-01T09:34:08;15.57;;;3.50;;
77522;SDS011;66637;-29.628;-49.938;2023-03-01T09:36:44;31.40;;;5.18;;
77522;SDS011;66637;-29.628;-49.938;2023-03-01T09:39:33;38.00;;;6.03;;
77522;SDS011;66637;-29.628;-49.938;2023-03-01T09:42:15;50.03;;;7.53;;
77522;SDS011;66637;-29.628;-49.938;2023-03-01T09:45:10;51.78;;;7.32;;
77522;SDS011;66637;-29.628;-49.938;2023-03-01T09:47:53;67.18;;;9.20;;
77522;SDS011;66637;-29.628;-49.938;2023-03-01T09:51:05;41.25;;;6.93;;
77522;SDS011;66637;-29.628;-49.938;2023-03-01T09:54:16;34.03;;;6.15;;
77522;SDS011;66637;-29.628;-49.938;2023-03-01T10:00:00;34.03;;;7.10;;
77522;SDS011;66637;-29.628;-49.938;2023-03-01T10:03:11;31.25;;;5.95;;
77522;SDS011;66637;-29.628;-49.938;2023-03-01T10:06:25;32.35;;;6.15;;
77522;SDS011;66637;-29.628;-49.938;2023-03-01T10:09:26;32.63;;;5.85;;
77522;SDS011;66637;-29.628;-49.938;2023-03-01T10:12:09;31.77;;;5.10;;
77522;SDS011;66637;-29.628;-49.938;2023-03-01T10:15:04;31.23;;;5.65;;
77522;SDS011;66637;-29.628;-49.938;2023-03-01T10:18:20;27.45;;;5.65;;
77522;SDS011;66637;-29.628;-49.938;2023-03-01T10:21:05;32.45;;;5.53;;
77522;SDS011;66637;-29.628;-49.938;2023-03-01T10:24:16;35.92;;;7.50;;
77522;SDS011;66637;-29.628;-49.938;2023-03-01T10:27:22;26.70;;;5.28;;
77522;SDS011;66637;-29.628;-49.938;2023-03-01T10:33:35;33.50;;;6.05;;
77522;SDS011;66637;-29.628;-49.938;2023-03-01T10:36:11;35.78;;;6.18;;
77522;SDS011;66637;-29.628;-49.938;2023-03-01T10:38:56;40.03;;;7.07;;
77522;SDS011;66637;-29.628;-49.938;2023-03-01T10:41:33;45.13;;;6.72;;
77522;SDS011;66637;-29.628;-49.938;2023-03-01T10:44:09;37.95;;;6.57;;
77522;SDS011;66637;-29.628;-49.938;2023-03-01T10:47:18;50.65;;;7.22;;
77522;SDS011;66637;-29.628;-49.938;2023-03-01T10:50:05;47.97;;;6.20;;
77522;SDS011;66637;-29.628;-49.938;2023-03-01T10:53:00;39.95;;;6.55;;
77522;SDS011;66637;-29.628;-49.938;2023-03-01T10:55:39;16.60;;;4.20;;
77522;SDS011;66637;-29.628;-49.938;2023-03-01T10:58:40;35.83;;;6.05;;
77522;SDS011;66637;-29.628;-49.938;2023-03-01T11:01:34;30.63;;;5.22;;
77522;SDS011;66637;-29.628;-49.938;2023-03-01T11:04:15;35.38;;;5.45;;
77522;SDS011;66637;-29.628;-49.938;2023-03-01T11:06:57;16.40;;;3.80;;
77522;SDS011;66637;-29.628;-49.938;2023-03-01T11:10:12;29.40;;;4.70;;
77522;SDS011;66637;-29.628;-49.938;2023-03-01T11:13:39;26.40;;;4.60;;
77522;SDS011;66637;-29.628;-49.938;2023-03-01T11:17:05;29.65;;;5.25;;
77522;SDS011;66637;-29.628;-49.938;2023-03-01T11:20:32;42.78;;;5.53;;
77522;SDS011;66637;-29.628;-49.938;2023-03-01T11:23:34;34.00;;;5.15;;
77522;SDS011;66637;-29.628;-49.938;2023-03-01T11:26:37;28.95;;;4.57;;
77522;SDS011;66637;-29.628;-49.938;2023-03-01T11:29:32;30.00;;;5.05;;
77522;SDS011;66637;-29.628;-49.938;2023-03-01T11:39:28;18.88;;;4.32;;
77522;SDS011;66637;-29.628;-49.938;2023-03-01T11:55:58;28.60;;;4.18;;
77522;SDS011;66637;-29.628;-49.938;2023-03-01T12:02:27;26.52;;;4.57;;
77522;SDS011;66637;-29.628;-49.938;2023-03-01T12:20:58;26.98;;;5.28;;
77522;SDS011;66637;-29.628;-49.938;2023-03-01T12:27:34;28.83;;;5.28;;
77522;SDS011;66637;-29.628;-49.938;2023-03-01T12:31:28;28.05;;;5.25;;
77522;SDS011;66637;-29.628;-49.938;2023-03-01T12:34:35;30.92;;;5.18;;
77522;SDS011;66637;-29.628;-49.938;2023-03-01T12:37:43;34.20;;;5.30;;
77522;SDS011;66637;-29.628;-49.938;2023-03-01T12:43:48;19.55;;;3.97;;
77522;SDS011;66637;-29.628;-49.938;2023-03-01T12:50:05;21.80;;;4.50;;
77522;SDS011;66637;-29.628;-49.938;2023-03-01T12:56:24;25.85;;;3.92;;
77522;SDS011;66637;-29.628;-49.938;2023-03-01T13:02:27;27.25;;;5.03;;
77522;SDS011;66637;-29.628;-49.938;2023-03-01T13:08:56;28.83;;;4.53;;
77522;SDS011;66637;-29.628;-49.938;2023-03-01T13:11:44;21.38;;;4.28;;
77522;SDS011;66637;-29.628;-49.938;2023-03-01T13:14:45;24.20;;;4.72;;
77522;SDS011;66637;-29.628;-49.938;2023-03-01T13:17:54;26.02;;;4.20;;
77522;SDS011;66637;-29.628;-49.938;2023-03-01T13:21:53;30.25;;;4.65;;
77522;SDS011;66637;-29.628;-49.938;2023-03-01T13:25:18;27.25;;;5.70;;
77522;SDS011;66637;-29.628;-49.938;2023-03-01T13:28:41;14.45;;;4.63;;
77522;SDS011;66637;-29.628;-49.938;2023-03-01T13:34:52;17.95;;;4.35;;
77522;SDS011;66637;-29.628;-49.938;2023-03-01T13:41:52;22.65;;;4.47;;
77522;SDS011;66637;-29.628;-49.938;2023-03-01T13:50:20;25.05;;;5.10;;
77522;SDS011;66637;-29.628;-49.938;2023-03-01T13:53:53;23.95;;;4.72;;
77522;SDS011;66637;-29.628;-49.938;2023-03-01T13:56:59;19.15;;;4.78;;
77522;SDS011;66637;-29.628;-49.938;2023-03-01T14:00:30;19.25;;;4.03;;
77522;SDS011;66637;-29.628;-49.938;2023-03-01T14:03:21;20.48;;;4.03;;
77522;SDS011;66637;-29.628;-49.938;2023-03-01T14:09:27;24.45;;;5.38;;
77522;SDS011;66637;-29.628;-49.938;2023-03-01T14:19:23;21.33;;;4.75;;
77522;SDS011;66637;-29.628;-49.938;2023-03-01T14:22:27;23.17;;;4.90;;
77522;SDS011;66637;-29.628;-49.938;2023-03-01T14:25:31;24.83;;;4.63;;
77522;SDS011;66637;-29.628;-49.938;2023-03-01T14:28:29;28.40;;;4.80;;
77522;SDS011;66637;-29.628;-49.938;2023-03-01T14:31:39;22.23;;;4.65;;
77522;SDS011;66637;-29.628;-49.938;2023-03-01T14:34:47;34.17;;;5.20;;
77522;SDS011;66637;-29.628;-49.938;2023-03-01T14:37:40;22.08;;;4.90;;
77522;SDS011;66637;-29.628;-49.938;2023-03-01T14:40:38;34.38;;;5.40;;
77522;SDS011;66637;-29.628;-49.938;2023-03-01T14:44:02;27.38;;;4.35;;
77522;SDS011;66637;-29.628;-49.938;2023-03-01T14:47:00;23.88;;;4.60;;
77522;SDS011;66637;-29.628;-49.938;2023-03-01T14:49:57;19.73;;;4.13;;
77522;SDS011;66637;-29.628;-49.938;2023-03-01T14:53:01;24.45;;;4.72;;
77522;SDS011;66637;-29.628;-49.938;2023-03-01T14:55:54;28.98;;;4.85;;
77522;SDS011;66637;-29.628;-49.938;2023-03-01T14:58:57;25.25;;;4.47;;
77522;SDS011;66637;-29.628;-49.938;2023-03-01T15:01:55;26.88;;;4.55;;
77522;SDS011;66637;-29.628;-49.938;2023-03-01T15:05:04;26.58;;;4.43;;
77522;SDS011;66637;-29.628;-49.938;2023-03-01T15:07:41;30.92;;;4.72;;
77522;SDS011;66637;-29.628;-49.938;2023-03-01T15:10:33;26.75;;;4.03;;
77522;SDS011;66637;-29.628;-49.938;2023-03-01T15:13:50;25.50;;;4.53;;
77522;SDS011;66637;-29.628;-49.938;2023-03-01T15:16:30;30.05;;;4.57;;
77522;SDS011;66637;-29.628;-49.938;2023-03-01T15:19:27;34.20;;;4.90;;
77522;SDS011;66637;-29.628;-49.938;2023-03-01T15:22:25;28.30;;;4.57;;
77522;SDS011;66637;-29.628;-49.938;2023-03-01T15:25:27;25.50;;;4.35;;
77522;SDS011;66637;-29.628;-49.938;2023-03-01T15:28:48;30.58;;;4.50;;
77522;SDS011;66637;-29.628;-49.938;2023-03-01T15:31:36;27.23;;;4.10;;
77522;SDS011;66637;-29.628;-49.938;2023-03-01T15:34:37;28.75;;;3.72;;
77522;SDS011;66637;-29.628;-49.938;2023-03-01T15:40:31;22.27;;;4.25;;
77522;SDS011;66637;-29.628;-49.938;2023-03-01T15:46:33;32.33;;;4.32;;
77522;SDS011;66637;-29.628;-49.938;2023-03-01T15:52:28;31.83;;;4.82;;
77522;SDS011;66637;-29.628;-49.938;2023-03-01T15:55:35;32.05;;;4.40;;
77522;SDS011;66637;-29.628;-49.938;2023-03-01T15:58:46;22.05;;;3.45;;
77522;SDS011;66637;-29.628;-49.938;2023-03-01T16:01:47;24.63;;;3.47;;
77522;SDS011;66637;-29.628;-49.938;2023-03-01T16:05:00;18.90;;;3.35;;
77522;SDS011;66637;-29.628;-49.938;2023-03-01T16:07:51;31.73;;;5.13;;
77522;SDS011;66637;-29.628;-49.938;2023-03-01T16:10:37;23.10;;;4.40;;
77522;SDS011;66637;-29.628;-49.938;2023-03-01T16:13:37;28.33;;;4.43;;
77522;SDS011;66637;-29.628;-49.938;2023-03-01T16:16:24;27.95;;;4.20;;
77522;SDS011;66637;-29.628;-49.938;2023-03-01T16:19:33;35.22;;;4.53;;
77522;SDS011;66637;-29.628;-49.938;2023-03-01T16:22:09;27.35;;;4.30;;
77522;SDS011;66637;-29.628;-49.938;2023-03-01T16:25:12;36.42;;;5.47;;
77522;SDS011;66637;-29.628;-49.938;2023-03-01T16:28:11;28.50;;;4.97;;
77522;SDS011;66637;-29.628;-49.938;2023-03-01T16:31:07;33.75;;;4.50;;
77522;SDS011;66637;-29.628;-49.938;2023-03-01T16:33:58;29.10;;;4.28;;
77522;SDS011;66637;-29.628;-49.938;2023-03-01T16:36:42;30.60;;;4.25;;
77522;SDS011;66637;-29.628;-49.938;2023-03-01T16:39:32;32.22;;;4.82;;
77522;SDS011;66637;-29.628;-49.938;2023-03-01T16:42:10;32.00;;;4.22;;
77522;SDS011;66637;-29.628;-49.938;2023-03-01T16:47:52;26.05;;;4.68;;
77522;SDS011;66637;-29.628;-49.938;2023-03-01T16:50:37;27.30;;;3.78;;
77522;SDS011;66637;-29.628;-49.938;2023-03-01T16:53:54;33.88;;;4.60;;
77522;SDS011;66637;-29.628;-49.938;2023-03-01T16:56:41;29.85;;;4.43;;
77522;SDS011;66637;-29.628;-49.938;2023-03-01T16:59:35;28.77;;;4.20;;
77522;SDS011;66637;-29.628;-49.938;2023-03-01T17:02:37;23.30;;;3.42;;
77522;SDS011;66637;-29.628;-49.938;2023-03-01T17:05:27;26.08;;;3.95;;
77522;SDS011;66637;-29.628;-49.938;2023-03-01T17:08:27;26.42;;;4.03;;
77522;SDS011;66637;-29.628;-49.938;2023-03-01T17:11:45;28.60;;;4.75;;
77522;SDS011;66637;-29.628;-49.938;2023-03-01T17:14:18;29.30;;;4.22;;
77522;SDS011;66637;-29.628;-49.938;2023-03-01T17:17:18;26.80;;;4.30;;
77522;SDS011;66637;-29.628;-49.938;2023-03-01T17:20:23;26.60;;;4.40;;
77522;SDS011;66637;-29.628;-49.938;2023-03-01T17:23:42;30.73;;;4.47;;
77522;SDS011;66637;-29.628;-49.938;2023-03-01T17:26:57;39.47;;;5.22;;
77522;SDS011;66637;-29.628;-49.938;2023-03-01T17:30:04;21.65;;;3.78;;
77522;SDS011;66637;-29.628;-49.938;2023-03-01T17:32:51;32.03;;;4.80;;
77522;SDS011;66637;-29.628;-49.938;2023-03-01T17:35:42;29.45;;;6.18;;
77522;SDS011;66637;-29.628;-49.938;2023-03-01T17:38:38;21.05;;;3.25;;
77522;SDS011;66637;-29.628;-49.938;2023-03-01T17:41:21;22.20;;;3.80;;
77522;SDS011;66637;-29.628;-49.938;2023-03-01T17:44:18;29.20;;;3.47;;
77522;SDS011;66637;-29.628;-49.938;2023-03-01T17:47:47;26.02;;;3.70;;
77522;SDS011;66637;-29.628;-49.938;2023-03-01T17:50:37;22.63;;;3.30;;
77522;SDS011;66637;-29.628;-49.938;2023-03-01T17:53:28;19.98;;;3.50;;
77522;SDS011;66637;-29.628;-49.938;2023-03-01T17:56:22;28.08;;;4.03;;
77522;SDS011;66637;-29.628;-49.938;2023-03-01T17:59:05;27.52;;;4.50;;
77522;SDS011;66637;-29.628;-49.938;2023-03-01T18:02:44;28.77;;;4.15;;
77522;SDS011;66637;-29.628;-49.938;2023-03-01T18:05:44;25.95;;;4.07;;
77522;SDS011;66637;-29.628;-49.938;2023-03-01T18:08:26;34.05;;;4.57;;
77522;SDS011;66637;-29.628;-49.938;2023-03-01T18:11:29;25.80;;;4.13;;
77522;SDS011;66637;-29.628;-49.938;2023-03-01T18:14:30;22.52;;;3.17;;
77522;SDS011;66637;-29.628;-49.938;2023-03-01T18:17:57;25.60;;;3.75;;
77522;SDS011;66637;-29.628;-49.938;2023-03-01T18:20:40;27.00;;;3.92;;
77522;SDS011;66637;-29.628;-49.938;2023-03-01T18:23:42;26.83;;;4.28;;
77522;SDS011;66637;-29.628;-49.938;2023-03-01T18:26:31;28.70;;;4.68;;
77522;SDS011;66637;-29.628;-49.938;2023-03-01T18:29:18;22.60;;;4.18;;
77522;SDS011;66637;-29.628;-49.938;2023-03-01T18:32:06;26.50;;;4.13;;
77522;SDS011;66637;-29.628;-49.938;2023-03-01T18:35:03;22.95;;;3.58;;